Paredes Garcia — EA2886 — position and weather

sailwx.info

Track history (hours):
 
Tides and Currents Weather Stations Pressure Air Temp Water Temp Dewpoint Dewpoint Depression Visibility Wind Speed Wind Dir Waves Ship Positions

Paredes Garcia

Last reported at 2017-Nov-24 08:08 UTC. Time now 2017-Dec-14 10:19 UTC.
Position N 37°33' W 000°57'.
Warning: this ship's position is 20 days out of date.

Length 19 m.

Type: Fishing. MMSI: 224020840.

Date/timePositionNaut miles runAvg speedWind from/ knotsBaromVisibWave heightAir tempDewpointWater temp
2017-Nov-24 08:08N 37°33' W 000°57'2 9.3
2017-Nov-24 07:58N 37°33' W 000°55'5 9.6
2017-Nov-24 07:28N 37°34' W 000°49'5 9.7
2017-Nov-24 06:57N 37°36' W 000°43'4 9.6
2017-Nov-24 06:30N 37°39' W 000°40'3 6.2
2017-Nov-24 06:00N 37°42' W 000°37'0 0.9
2017-Nov-24 05:30N 37°41' W 000°37'0 0.6
2017-Nov-24 05:00N 37°41' W 000°37'1 2.3
2017-Nov-24 04:30N 37°43' W 000°37'0 0.8
2017-Nov-24 04:00N 37°42' W 000°37'2 3.5
2017-Nov-24 03:30N 37°43' W 000°35'7 7.7
2017-Nov-24 02:39N 37°50' W 000°36'1 7.8
2017-Nov-24 02:29N 37°51' W 000°36'4 8.0
2017-Nov-24 02:00N 37°54' W 000°39'5 7.8
2017-Nov-24 01:25N 37°58' W 000°41'0 0.0
2017-Nov-23 19:57N 37°58' W 000°41'0 0.0
2017-Nov-23 16:11N 37°58' W 000°41'0 0.0
2017-Nov-23 15:55N 37°58' W 000°41'0 0.0
2017-Nov-23 15:24N 37°58' W 000°41'0 0.0
2017-Nov-23 14:59N 37°58' W 000°41'0 0.0
2017-Nov-23 14:30N 37°58' W 000°41'0 0.0
2017-Nov-23 14:00N 37°58' W 000°41'0 0.0
2017-Nov-23 13:28N 37°58' W 000°41'0 0.0
2017-Nov-23 09:59N 37°58' W 000°41'0 0.0
2017-Nov-23 09:30N 37°58' W 000°41'0 0.0
2017-Nov-23 08:45N 37°58' W 000°41'1 2.4
2017-Nov-23 08:30N 37°58' W 000°40'5 9.4
2017-Nov-23 08:00N 38°01' W 000°35'13 8.6
2017-Nov-23 06:33N 38°07' W 000°21'0 8.6
2017-Nov-23 06:30N 38°07' W 000°21'13 3.3
2017-Nov-23 02:28N 37°57' W 000°33'4 8.8
2017-Nov-23 02:00N 37°57' W 000°38'  
Track history (hours):
 
Tides and Currents Weather Stations Pressure Air Temp Water Temp Dewpoint Dewpoint Depression Visibility Wind Speed Wind Dir Waves Ship Positions

Paredes Garcia

Last reported at 2017-Nov-24 08:08 UTC. Time now 2017-Dec-14 10:19 UTC.
Position N 37°33' W 000°57'.
Warning: this ship's position is 20 days out of date.

Length 19 m.

Type: Fishing. MMSI: 224020840.

Date/timePositionNaut miles runAvg speedWind from/ knotsBaromVisibWave heightAir tempDewpointWater temp
2017-Nov-24 08:08N 37°33' W 000°57'2 9.3
2017-Nov-24 07:58N 37°33' W 000°55'5 9.6
2017-Nov-24 07:28N 37°34' W 000°49'5 9.7
2017-Nov-24 06:57N 37°36' W 000°43'4 9.6
2017-Nov-24 06:30N 37°39' W 000°40'3 6.2
2017-Nov-24 06:00N 37°42' W 000°37'0 0.9
2017-Nov-24 05:30N 37°41' W 000°37'0 0.6
2017-Nov-24 05:00N 37°41' W 000°37'1 2.3
2017-Nov-24 04:30N 37°43' W 000°37'0 0.8
2017-Nov-24 04:00N 37°42' W 000°37'2 3.5
2017-Nov-24 03:30N 37°43' W 000°35'7 7.7
2017-Nov-24 02:39N 37°50' W 000°36'1 7.8
2017-Nov-24 02:29N 37°51' W 000°36'4 8.0
2017-Nov-24 02:00N 37°54' W 000°39'5 7.8
2017-Nov-24 01:25N 37°58' W 000°41'0 0.0
2017-Nov-23 19:57N 37°58' W 000°41'0 0.0
2017-Nov-23 16:11N 37°58' W 000°41'0 0.0
2017-Nov-23 15:55N 37°58' W 000°41'0 0.0
2017-Nov-23 15:24N 37°58' W 000°41'0 0.0
2017-Nov-23 14:59N 37°58' W 000°41'0 0.0
2017-Nov-23 14:30N 37°58' W 000°41'0 0.0
2017-Nov-23 14:00N 37°58' W 000°41'0 0.0
2017-Nov-23 13:28N 37°58' W 000°41'0 0.0
2017-Nov-23 09:59N 37°58' W 000°41'0 0.0
2017-Nov-23 09:30N 37°58' W 000°41'0 0.0
2017-Nov-23 08:45N 37°58' W 000°41'1 2.4
2017-Nov-23 08:30N 37°58' W 000°40'5 9.4
2017-Nov-23 08:00N 38°01' W 000°35'13 8.6
2017-Nov-23 06:33N 38°07' W 000°21'0 8.6
2017-Nov-23 06:30N 38°07' W 000°21'13 3.3
2017-Nov-23 02:28N 37°57' W 000°33'4 8.8
2017-Nov-23 02:00N 37°57' W 000°38'  

Dump ship's entire track history